Time;durP1;ratioP1;P1;durP2;ratioP2;P2;SDS_P1;SDS_P2;PMS_P1;PMS_P2;Temp;Humidity;BMP_temperature;BMP_pressure;BME280_temperature;BME280_humidity;BME280_pressure;Samples;Min_cycle;Max_cycle;Signal;HPM_P1;HPM_P2
2023/03/31 00:00:11;;;;;;;5.13;4.13;;;;;;;10.13;50.68;99500.53;5089925;28;20202;-48
2023/03/31 00:03:09;;;;;;;3.80;3.50;;;;;;;10.15;50.80;99498.75;5089702;28;20198;-48
2023/03/31 00:06:19;;;;;;;5.30;3.23;;;;;;;10.20;51.23;99490.84;5089527;28;20199;-48
2023/03/31 00:15:26;;;;;;;3.50;3.20;;;;;;;10.30;50.69;99488.84;5088452;28;20713;-49
2023/03/31 00:18:16;;;;;;;5.77;3.30;;;;;;;10.26;51.46;99482.06;5089860;28;20245;-48
2023/03/31 00:21:23;;;;;;;;;;;;;;;;;;;;;
2023/03/31 00:24:26;;;;;;;4.10;3.80;;;;;;;10.25;51.85;99477.78;5086185;28;20199;-48
2023/03/31 00:30:29;;;;;;;4.13;3.73;;;;;;;10.09;52.36;99480.75;5087722;28;20198;-48
2023/03/31 00:36:09;;;;;;;3.90;3.37;;;;;;;9.96;52.45;99474.19;5088743;28;20206;-47
2023/03/31 00:39:04;;;;;;;5.73;3.70;;;;;;;10.02;52.64;99474.03;5089327;28;20249;-47
2023/03/31 00:48:58;;;;;;;;;;;;;;;;;;;;;
2023/03/31 00:52:07;;;;;;;6.30;3.93;;;;;;;9.84;53.98;99448.59;5087310;28;20199;-47
2023/03/31 00:55:07;;;;;;;4.83;4.13;;;;;;;9.80;54.17;99452.19;5089231;28;20203;-48
2023/03/31 00:58:07;;;;;;;5.67;4.60;;;;;;;9.83;53.83;99452.06;5089082;28;20206;-48
2023/03/31 01:04:06;;;;;;;7.20;4.20;;;;;;;9.75;54.35;99448.84;5089090;28;20230;-49
2023/03/31 01:07:03;;;;;;;6.20;4.80;;;;;;;9.71;55.20;99436.84;5090008;28;20663;-49
2023/03/31 01:12:50;;;;;;;5.90;5.00;;;;;;;9.64;55.48;99443.94;5091147;28;20717;-48
2023/03/31 01:16:01;;;;;;;6.20;4.70;;;;;;;9.60;55.12;99449.22;5093274;28;20195;-49
2023/03/31 01:18:52;;;;;;;7.93;5.77;;;;;;;9.65;55.38;99457.75;5092974;28;20713;-48
2023/03/31 01:22:09;;;;;;;10.20;7.60;;;;;;;9.57;55.59;99446.75;5093145;28;20203;-47
2023/03/31 01:32:09;;;;;;;14.23;10.20;;;;;;;9.79;55.55;99451.31;5092356;28;20657;-48
2023/03/31 01:39:10;;;;;;;10.17;7.83;;;;;;;9.58;56.25;99449.31;5089558;28;20202;-47
2023/03/31 01:48:40;;;;;;;9.50;8.00;;;;;;;9.33;57.16;99406.78;5091278;28;20649;-47
2023/03/31 01:54:50;;;;;;;7.10;6.40;;;;;;;9.48;57.43;99423.66;5091193;28;20190;-47
2023/03/31 01:58:09;;;;;;;7.10;6.20;;;;;;;9.48;57.44;99424.50;5092343;28;20240;-47
2023/03/31 02:01:02;;;;;;;6.77;5.67;;;;;;;9.48;57.38;99420.16;5091727;28;20194;-47
2023/03/31 02:04:05;;;;;;;6.30;5.80;;;;;;;9.35;57.25;99418.78;5092233;28;20218;-47
2023/03/31 02:07:09;;;;;;;5.83;4.87;;;;;;;9.22;58.02;99422.56;5091998;28;20198;-48
2023/03/31 02:13:04;;;;;;;13.43;7.80;;;;;;;9.21;58.60;99405.34;5091540;28;20282;-49
2023/03/31 02:16:21;;;;;;;14.40;7.53;;;;;;;9.09;58.35;99400.47;5092131;28;20199;-47
2023/03/31 02:19:04;;;;;;;11.50;7.43;;;;;;;9.14;58.33;99403.81;5091312;28;20315;-48
2023/03/31 02:22:03;;;;;;;9.47;6.37;;;;;;;9.12;58.27;99400.41;5091796;28;20563;-48
2023/03/31 02:28:04;;;;;;;10.63;6.47;;;;;;;9.09;58.35;99403.06;5091707;28;20227;-48
2023/03/31 02:31:03;;;;;;;9.53;6.57;;;;;;;9.05;58.75;99398.81;5091967;28;20627;-48
2023/03/31 02:37:05;;;;;;;18.87;9.80;;;;;;;9.06;58.32;99401.38;5090902;28;20278;-48
2023/03/31 02:43:20;;;;;;;15.57;10.20;;;;;;;9.05;58.21;99417.78;5090800;28;20588;-48
2023/03/31 02:46:18;;;;;;;18.03;11.10;;;;;;;9.05;58.96;99404.00;5098234;27;20233;-47
2023/03/31 02:49:20;;;;;;;16.43;10.17;;;;;;;9.09;58.38;99400.47;5131058;27;20221;-49
2023/03/31 02:52:38;;;;;;;14.40;9.33;;;;;;;9.15;58.06;99410.66;5132475;27;20865;-48
2023/03/31 02:59:22;;;;;;;10.47;6.70;;;;;;;9.20;58.53;99401.03;4449049;27;19657539;-48
2023/03/31 03:08:23;;;;;;;12.43;5.70;;;;;;;9.08;58.21;99407.38;5123973;28;20198;-48
2023/03/31 03:11:09;;;;;;;12.73;6.50;;;;;;;9.05;59.38;99428.16;5126003;28;20684;-47
2023/03/31 03:14:04;;;;;;;6.87;6.00;;;;;;;9.17;58.88;99423.56;5124345;28;20193;-48
2023/03/31 03:16:53;;;;;;;7.13;5.90;;;;;;;9.18;58.53;99420.09;5127021;28;20257;-47
2023/03/31 03:19:26;;;;;;;11.30;5.83;;;;;;;9.23;58.42;99426.88;5127198;28;20624;-51
2023/03/31 03:22:03;;;;;;;10.20;6.13;;;;;;;9.26;58.75;99429.38;5127119;28;20455;-49
2023/03/31 03:24:39;;;;;;;13.70;5.53;;;;;;;8.92;59.56;99397.41;5127068;28;20690;-49
2023/03/31 03:27:17;;;;;;;11.77;6.53;;;;;;;9.18;59.73;99444.25;5126683;28;20681;-48
2023/03/31 03:30:06;;;;;;;13.57;6.53;;;;;;;9.18;58.72;99452.00;5126832;28;20205;-49
2023/03/31 03:32:38;;;;;;;7.07;5.40;;;;;;;9.08;57.23;99435.00;5126935;28;20237;-48
2023/03/31 03:35:12;;;;;;;10.40;5.33;;;;;;;9.08;56.92;99445.34;5126898;28;20666;-48
2023/03/31 03:37:57;;;;;;;9.87;4.87;;;;;;;9.01;57.53;99443.81;5126107;28;20263;-48
2023/03/31 03:40:34;;;;;;;7.87;5.03;;;;;;;9.03;56.55;99448.03;5121630;28;20202;-50
2023/03/31 03:43:13;;;;;;;8.87;5.20;;;;;;;8.85;57.02;99445.91;5124573;28;20247;-48
2023/03/31 03:45:56;;;;;;;11.47;6.17;;;;;;;8.86;58.34;99444.16;5125778;28;20217;-49
2023/03/31 03:48:28;;;;;;;8.10;5.13;;;;;;;8.80;58.89;99441.72;5125197;28;20247;-49
2023/03/31 03:51:03;;;;;;;7.10;5.53;;;;;;;8.74;59.62;99434.94;5125798;28;21064;-48
2023/03/31 03:53:51;;;;;;;8.27;6.27;;;;;;;8.68;59.94;99432.50;5126108;28;20196;-49
2023/03/31 03:56:32;;;;;;;13.03;6.43;;;;;;;8.55;60.24;99425.91;5124286;28;20654;-48
2023/03/31 03:59:19;;;;;;;6.67;6.00;;;;;;;8.51;60.72;99435.44;5125649;28;20198;-49
2023/03/31 04:01:56;;;;;;;9.50;6.87;;;;;;;8.57;61.25;99435.34;5123522;28;20642;-47
2023/03/31 04:07:35;;;;;;;12.80;5.97;;;;;;;8.46;60.58;99439.88;5125199;28;20686;-49
2023/03/31 04:13:16;;;;;;;8.93;5.00;;;;;;;8.41;60.05;99431.34;5110987;28;20198;-48
2023/03/31 04:15:50;;;;;;;13.27;5.30;;;;;;;8.40;59.64;99429.66;5111308;28;20194;-48
2023/03/31 04:18:41;;;;;;;11.40;5.37;;;;;;;8.37;59.87;99419.38;5110328;28;20233;-49
2023/03/31 04:21:23;;;;;;;6.13;4.63;;;;;;;8.33;58.99;99417.75;5111826;28;20226;-49
2023/03/31 04:26:56;;;;;;;6.23;5.03;;;;;;;8.27;59.24;99402.31;5111608;28;20202;-47
2023/03/31 04:29:53;;;;;;;7.40;4.80;;;;;;;8.28;59.13;99409.19;5115376;28;20356;-47
2023/03/31 04:32:31;;;;;;;6.47;5.30;;;;;;;8.26;58.91;99395.44;5110446;28;20682;-48
2023/03/31 04:35:16;;;;;;;7.57;5.00;;;;;;;8.28;59.22;99410.03;5107791;28;20602;-47
2023/03/31 04:37:57;;;;;;;9.90;5.97;;;;;;;8.29;58.97;99401.41;5098231;28;20826;-49
2023/03/31 04:40:25;;;;;;;13.20;6.17;;;;;;;8.33;59.57;99400.50;5111167;28;20233;-48
2023/03/31 04:42:56;;;;;;;6.90;6.20;;;;;;;8.33;58.97;99394.47;5109300;28;20226;-48
2023/03/31 04:45:28;;;;;;;7.97;6.87;;;;;;;8.36;59.40;99407.31;5107827;28;20258;-47
2023/03/31 04:47:58;;;;;;;11.30;6.60;;;;;;;8.36;59.78;99396.97;5109698;28;20227;-48
2023/03/31 04:50:30;;;;;;;10.17;7.70;;;;;;;8.52;59.60;99407.84;5110098;28;20322;-47
2023/03/31 04:53:00;;;;;;;10.83;7.10;;;;;;;8.55;59.59;99407.78;5108883;28;20222;-49
2023/03/31 04:55:48;;;;;;;13.30;7.03;;;;;;;8.69;59.26;99405.75;5110038;28;20615;-47
2023/03/31 04:58:36;;;;;;;7.40;6.80;;;;;;;8.86;57.67;99398.44;5109172;28;20321;-48
2023/03/31 05:01:12;;;;;;;10.60;6.77;;;;;;;8.67;58.05;99379.06;5108524;28;20652;-48
2023/03/31 05:03:47;;;;;;;10.67;7.00;;;;;;;8.84;57.64;99389.84;5107182;28;20220;-48
2023/03/31 05:06:26;;;;;;;12.63;7.20;;;;;;;8.93;56.67;99391.34;5107413;28;20233;-48
2023/03/31 05:09:01;;;;;;;9.20;7.53;;;;;;;9.02;56.45;99385.97;5109935;28;20218;-49
2023/03/31 05:11:37;;;;;;;10.57;7.43;;;;;;;9.09;56.33;99374.56;5109817;28;20218;-48
2023/03/31 05:23:51;;;;;;;20.77;9.00;;;;;;;9.50;55.03;99357.09;5088014;28;20218;-49
2023/03/31 05:32:35;;;;;;;18.53;10.57;;;;;;;9.54;56.02;99350.94;5102861;28;20190;-48
2023/03/31 05:35:27;;;;;;;14.97;9.10;;;;;;;9.53;56.24;99350.09;5090096;28;20240;-48
2023/03/31 05:38:32;;;;;;;9.40;7.90;;;;;;;9.61;55.96;99342.09;5090218;28;20223;-48
2023/03/31 05:41:22;;;;;;;12.97;7.47;;;;;;;9.70;55.56;99342.72;5089514;28;20221;-48
2023/03/31 05:44:19;;;;;;;12.20;7.37;;;;;;;9.73;54.82;99334.00;5088507;28;20766;-48
2023/03/31 05:47:13;;;;;;;7.77;6.73;;;;;;;9.84;54.55;99337.13;5089138;28;20306;-48
2023/03/31 05:59:08;;;;;;;22.20;9.20;;;;;;;9.93;54.42;99339.44;5063701;28;20231;-49
2023/03/31 06:02:00;;;;;;;10.80;7.67;;;;;;;9.87;54.22;99326.69;5066536;28;20235;-47
2023/03/31 06:07:59;;;;;;;18.37;9.53;;;;;;;9.95;54.26;99318.66;5048695;28;20239;-49
2023/03/31 06:17:14;;;;;;;19.53;9.27;;;;;;;10.14;52.96;99338.84;5067627;28;20305;-49
2023/03/31 06:20:06;;;;;;;11.77;9.00;;;;;;;10.17;53.06;99341.31;5067795;28;20660;-48
2023/03/31 06:23:05;;;;;;;18.90;8.37;;;;;;;10.24;53.33;99341.19;5067388;28;20220;-49
2023/03/31 06:32:34;;;;;;;31.87;11.70;;;;;;;10.39;53.79;99332.91;5068202;28;20543;-49
2023/03/31 06:35:28;;;;;;;47.00;16.53;;;;;;;10.28;56.77;99332.41;5068605;28;20199;-49
2023/03/31 06:41:17;;;;;;;33.57;15.00;;;;;;;9.87;60.30;99316.31;5055164;28;20733;-49
2023/03/31 06:50:26;;;;;;;45.43;17.10;;;;;;;9.87;62.62;99318.91;5068353;28;20605;-48
2023/03/31 06:53:24;;;;;;;45.30;17.83;;;;;;;10.05;61.95;99323.53;5069314;28;20694;-49
2023/03/31 06:56:34;;;;;;;29.57;13.23;;;;;;;10.30;60.98;99323.69;5068590;28;20594;-49
2023/03/31 06:59:10;;;;;;;32.97;13.50;;;;;;;10.53;60.06;99316.03;5065254;28;20219;-49
2023/03/31 07:02:02;;;;;;;33.83;14.20;;;;;;;10.76;58.57;99299.72;5057213;28;20195;-49
2023/03/31 07:08:32;;;;;;;25.97;12.83;;;;;;;12.42;53.50;99306.69;5047853;28;20219;-49
2023/03/31 07:14:03;;;;;;;28.80;13.17;;;;;;;12.96;51.55;99311.44;5047639;28;20304;-49
2023/03/31 07:20:23;;;;;;;26.60;13.27;;;;;;;13.88;49.08;99323.97;5046803;28;20232;-48
2023/03/31 07:29:20;;;;;;;23.10;11.83;;;;;;;18.27;36.85;99319.31;5049055;28;20219;-49
2023/03/31 07:38:41;;;;;;;14.43;9.30;;;;;;;22.21;30.90;99317.41;5048099;28;20280;-49
2023/03/31 07:44:20;;;;;;;18.88;9.57;;;;;;;24.93;27.23;99321.44;5048194;28;20200;-50
2023/03/31 07:46:51;;;;;;;17.42;10.43;;;;;;;24.90;26.56;99321.66;5060449;28;20250;-49
2023/03/31 07:49:38;;;;;;;17.13;9.95;;;;;;;24.70;26.77;99327.13;5060507;28;20273;-49
2023/03/31 07:52:20;;;;;;;19.38;10.18;;;;;;;26.10;25.48;99304.22;5062158;28;20199;-47
2023/03/31 07:55:06;;;;;;;18.08;11.25;;;;;;;27.16;24.31;99314.19;5062266;28;20753;-51
2023/03/31 07:58:10;;;;;;;12.75;10.02;;;;;;;27.83;23.40;99317.97;5089326;28;20233;-50
2023/03/31 08:01:12;;;;;;;15.40;9.80;;;;;;;29.07;22.71;99309.19;5109182;28;20285;-51
2023/03/31 08:04:09;;;;;;;19.52;10.30;;;;;;;30.35;21.57;99315.44;5108566;27;20253;-51
2023/03/31 08:07:02;;;;;;;13.00;10.02;;;;;;;30.77;20.99;99312.38;5111893;28;20261;-49
2023/03/31 08:16:05;;;;;;;16.65;9.82;;;;;;;32.28;19.93;99279.03;5107173;28;20230;-49
2023/03/31 08:19:10;;;;;;;18.67;11.77;;;;;;;32.76;19.52;99266.75;5111781;28;20227;-49
2023/03/31 08:22:15;;;;;;;22.90;12.18;;;;;;;32.75;19.33;99267.75;5111842;28;20194;-50
2023/03/31 08:27:47;;;;;;;19.73;12.82;;;;;;;32.24;19.78;99246.34;5112143;28;25104;-50
2023/03/31 08:30:44;;;;;;;15.95;12.40;;;;;;;31.32;20.43;99240.53;5112297;28;20202;-49
2023/03/31 08:33:22;;;;;;;21.70;14.23;;;;;;;30.15;21.55;99235.53;5112451;28;20743;-50
2023/03/31 08:38:54;;;;;;;22.88;12.52;;;;;;;26.81;24.73;99223.63;5111128;28;20221;-51
2023/03/31 08:51:02;;;;;;;27.80;12.55;;;;;;;23.69;29.00;99184.94;5109819;28;20289;-49
2023/03/31 08:54:11;;;;;;;20.70;10.73;;;;;;;23.47;29.60;99169.22;5112170;28;20685;-50
2023/03/31 09:00:28;;;;;;;21.70;13.25;;;;;;;22.94;30.54;99160.59;5110190;28;20624;-50
2023/03/31 09:12:47;;;;;;;23.23;11.80;;;;;;;21.67;32.65;99130.59;5095305;28;20237;-49
2023/03/31 09:15:58;;;;;;;21.50;11.20;;;;;;;21.44;33.09;99126.31;5111931;28;20689;-49
2023/03/31 09:19:19;;;;;;;12.93;11.57;;;;;;;21.34;33.22;99110.31;5111370;28;20261;-48
2023/03/31 09:25:06;;;;;;;16.42;10.23;;;;;;;22.08;32.67;99109.56;5107066;28;20211;-50
2023/03/31 09:27:41;;;;;;;19.83;10.13;;;;;;;22.64;32.28;99101.34;5111276;28;20666;-50
2023/03/31 09:30:40;;;;;;;17.90;10.45;;;;;;;22.57;32.48;99102.84;5111254;28;20190;-50
2023/03/31 09:37:17;;;;;;;5.00;4.47;;;;;;;22.22;34.10;99079.38;5092021;28;20320;-50
2023/03/31 09:40:14;;;;;;;6.40;4.13;;;;;;;23.01;33.61;99071.75;5103080;28;20227;-50
2023/03/31 09:43:04;;;;;;;11.15;4.57;;;;;;;23.82;32.42;99066.22;5110790;28;20198;-50
2023/03/31 09:45:57;;;;;;;5.53;4.85;;;;;;;24.88;31.02;99059.94;5109784;28;20203;-51
2023/03/31 09:48:59;;;;;;;5.47;4.97;;;;;;;26.79;28.66;99068.50;5110913;28;20213;-50
2023/03/31 09:52:15;;;;;;;6.75;4.47;;;;;;;28.20;27.26;99068.66;5110646;28;20194;-49
2023/03/31 09:55:05;;;;;;;8.07;6.97;;;;;;;27.57;27.41;99067.38;5110584;28;20191;-55
2023/03/31 09:58:01;;;;;;;4.90;4.00;;;;;;;26.91;28.45;99065.41;5110083;28;20232;-49
2023/03/31 10:01:07;;;;;;;5.07;3.35;;;;;;;26.28;28.88;99062.19;5111601;28;20234;-51
2023/03/31 10:04:11;;;;;;;3.83;3.53;;;;;;;25.23;30.22;99043.31;5108188;28;20190;-53
2023/03/31 10:07:25;;;;;;;8.07;4.40;;;;;;;24.87;30.77;99048.50;5109618;28;20713;-54
2023/03/31 10:10:12;;;;;;;7.57;4.38;;;;;;;24.38;31.46;99046.16;5107237;28;20642;-50
2023/03/31 10:13:09;;;;;;;4.68;4.28;;;;;;;23.95;32.25;99028.84;5110197;28;20206;-50
2023/03/31 10:16:15;;;;;;;;;;;;;;;;;;;;;
2023/03/31 10:19:12;;;;;;;9.05;5.63;;;;;;;23.74;32.55;99018.38;5106629;28;20732;-48
2023/03/31 10:22:11;;;;;;;8.68;6.57;;;;;;;23.69;32.62;99012.69;5109216;28;20256;-50
2023/03/31 10:25:22;;;;;;;7.10;6.50;;;;;;;23.78;32.64;99009.19;5109482;28;20305;-49
2023/03/31 10:28:06;;;;;;;5.15;4.68;;;;;;;23.39;33.32;99007.44;5109466;28;20220;-50
2023/03/31 10:31:11;;;;;;;5.30;4.80;;;;;;;23.51;33.15;99001.09;5109430;28;20226;-49
2023/03/31 10:34:11;;;;;;;8.18;5.47;;;;;;;23.36;33.42;98999.81;5108877;28;20214;-50
2023/03/31 10:37:09;;;;;;;8.68;5.55;;;;;;;23.47;33.46;98999.69;5109532;28;20311;-49
2023/03/31 10:39:58;;;;;;;7.50;6.65;;;;;;;23.61;32.93;98975.44;5101824;28;20250;-52
2023/03/31 10:42:45;;;;;;;7.40;6.45;;;;;;;23.85;32.63;98985.59;5088961;28;20698;-50
2023/03/31 10:45:40;;;;;;;18.95;13.15;;;;;;;23.71;32.91;98973.63;5088943;28;20219;-50
2023/03/31 10:48:37;;;;;;;12.55;10.20;;;;;;;23.61;33.17;98972.78;5087261;28;20219;-50
2023/03/31 10:57:43;;;;;;;13.75;9.75;;;;;;;24.52;32.03;98940.38;5086884;28;20256;-50
2023/03/31 11:03:47;;;;;;;10.45;5.35;;;;;;;24.73;31.56;98934.00;5096192;28;20321;-49
2023/03/31 11:06:44;;;;;;;6.95;5.57;;;;;;;24.52;31.85;98927.13;5109441;28;20613;-50
2023/03/31 11:09:34;;;;;;;12.82;9.63;;;;;;;24.37;31.97;98917.16;5108927;28;20194;-50
2023/03/31 11:12:20;;;;;;;17.20;11.98;;;;;;;24.36;31.98;98910.16;5107626;28;20201;-50
2023/03/31 11:15:29;;;;;;;11.90;9.57;;;;;;;24.06;32.24;98919.16;5108307;28;20198;-50
2023/03/31 11:18:34;;;;;;;7.72;6.90;;;;;;;24.09;32.29;98910.91;5108572;28;20198;-49
2023/03/31 11:21:29;;;;;;;7.50;5.60;;;;;;;23.95;32.47;98903.41;5112425;28;20225;-50
2023/03/31 11:24:30;;;;;;;13.02;6.25;;;;;;;23.77;32.61;98893.56;5110917;28;20201;-49
2023/03/31 11:27:39;;;;;;;;;;;;;;;;;;;;;
2023/03/31 11:30:46;;;;;;;10.60;6.50;;;;;;;23.73;32.96;98883.38;5110216;28;20224;-48
2023/03/31 11:34:01;;;;;;;6.55;5.25;;;;;;;23.74;32.79;98877.94;5112372;28;20280;-49
2023/03/31 11:36:56;;;;;;;6.32;5.50;;;;;;;23.81;32.70;98883.53;5112085;28;20277;-49
2023/03/31 11:39:43;;;;;;;7.70;4.93;;;;;;;23.83;32.18;98865.63;5111464;28;20713;-50
2023/03/31 11:42:39;;;;;;;9.25;4.90;;;;;;;23.87;32.38;98862.56;5111885;28;20610;-49
2023/03/31 11:45:43;;;;;;;7.25;5.35;;;;;;;23.58;32.23;98850.38;5109573;28;20194;-49
2023/03/31 11:48:58;;;;;;;6.90;4.38;;;;;;;23.13;32.52;98856.25;5112671;28;20253;-49
2023/03/31 11:51:57;;;;;;;5.82;5.25;;;;;;;22.71;32.97;98835.28;5112411;28;20670;-49
2023/03/31 11:57:57;;;;;;;8.13;4.43;;;;;;;22.45;33.67;98837.63;5111568;28;20194;-50
2023/03/31 12:01:02;;;;;;;6.75;4.15;;;;;;;22.30;34.21;98838.13;5106680;28;20219;-49
2023/03/31 12:06:57;;;;;;;7.85;4.93;;;;;;;22.08;34.74;98834.69;5111411;28;20201;-50
2023/03/31 12:09:53;;;;;;;6.47;4.45;;;;;;;22.14;34.57;98828.03;5111676;28;20191;-50
2023/03/31 12:12:53;;;;;;;5.45;4.95;;;;;;;22.15;34.90;98827.06;5111078;28;20283;-50
2023/03/31 12:15:56;;;;;;;6.57;4.45;;;;;;;22.19;34.49;98825.84;5110325;28;20281;-51
2023/03/31 12:21:55;;;;;;;4.78;4.40;;;;;;;22.51;34.21;98816.88;5097375;28;20589;-50
2023/03/31 12:27:34;;;;;;;9.65;4.50;;;;;;;22.81;33.73;98808.84;5110063;28;20772;-50
2023/03/31 12:30:19;;;;;;;6.68;4.25;;;;;;;22.90;33.28;98818.63;5105915;28;20226;-50
2023/03/31 12:43:08;;;;;;;6.15;3.22;;;;;;;22.76;33.26;98811.94;5090947;28;20276;-50
2023/03/31 12:46:00;;;;;;;3.50;3.05;;;;;;;22.69;32.89;98794.06;5084311;28;20230;-51
2023/03/31 12:49:07;;;;;;;4.00;3.00;;;;;;;22.79;32.47;98802.88;5087590;28;20199;-49
2023/03/31 12:56:05;;;;;;;6.07;2.70;;;;;;;22.76;31.89;98785.47;4894352;27;7110011;-50
2023/03/31 12:58:58;;;;;;;6.45;2.30;;;;;;;22.47;32.04;98763.41;5126422;28;20201;-52
2023/03/31 13:02:24;;;;;;;3.58;2.40;;;;;;;22.59;32.27;98777.34;5127460;28;20281;-50
2023/03/31 13:05:30;;;;;;;3.85;2.22;;;;;;;22.49;32.36;98761.47;5127144;28;20729;-50
2023/03/31 13:08:34;;;;;;;5.45;2.53;;;;;;;22.51;32.15;98763.97;5127404;28;20670;-51
2023/03/31 13:14:40;;;;;;;4.15;2.42;;;;;;;22.58;32.49;98754.50;5127087;28;20707;-51
2023/03/31 13:20:50;;;;;;;7.82;2.90;;;;;;;22.78;31.81;98727.97;5125439;28;20625;-49
2023/03/31 13:23:48;;;;;;;2.60;2.40;;;;;;;22.72;32.10;98738.22;5127254;28;20592;-50
2023/03/31 13:36:29;;;;;;;6.38;2.80;;;;;;;22.75;32.17;98722.09;5125908;28;20224;-50
2023/03/31 13:39:40;;;;;;;2.85;2.40;;;;;;;22.80;32.35;98727.81;5105899;28;20275;-51
2023/03/31 13:42:54;;;;;;;4.82;2.70;;;;;;;22.85;32.27;98725.59;5105419;28;20222;-49
2023/03/31 13:46:17;;;;;;;2.92;2.72;;;;;;;22.88;32.19;98724.47;5105852;28;20249;-51
2023/03/31 13:56:22;;;;;;;3.85;2.90;;;;;;;22.80;32.20;98711.94;5085441;28;20206;-51
2023/03/31 13:59:19;;;;;;;3.95;3.63;;;;;;;22.70;32.13;98711.91;5085089;28;20230;-50
2023/03/31 14:02:39;;;;;;;6.30;2.80;;;;;;;22.47;32.43;98705.22;5079133;28;20227;-51
2023/03/31 14:08:51;;;;;;;3.83;2.47;;;;;;;22.29;33.60;98691.88;5069031;28;20220;-51
2023/03/31 14:18:01;;;;;;;4.45;3.45;;;;;;;22.28;33.69;98674.34;5070366;28;20200;-50
2023/03/31 14:21:18;;;;;;;5.32;3.20;;;;;;;22.26;33.27;98681.56;5071795;28;20199;-51
2023/03/31 14:24:29;;;;;;;4.38;3.13;;;;;;;22.30;33.61;98680.31;5071704;28;20196;-50
2023/03/31 14:27:55;;;;;;;7.55;3.53;;;;;;;22.21;33.85;98681.16;5070636;28;20200;-49
2023/03/31 14:30:57;;;;;;;10.32;3.83;;;;;;;22.17;33.86;98674.47;5071637;28;20192;-51
2023/03/31 14:34:10;;;;;;;12.13;3.88;;;;;;;22.06;33.93;98672.78;5071349;28;20219;-50
2023/03/31 14:36:48;;;;;;;17.33;4.72;;;;;;;22.01;34.12;98667.06;5060889;28;20739;-51
2023/03/31 14:39:38;;;;;;;23.83;4.78;;;;;;;21.86;34.14;98660.50;5071531;28;20201;-49
2023/03/31 14:42:26;;;;;;;11.85;3.55;;;;;;;21.76;34.13;98664.91;5071260;28;20196;-49
2023/03/31 14:45:08;;;;;;;9.52;3.80;;;;;;;21.66;34.45;98666.69;5071143;28;20227;-49
2023/03/31 14:51:14;;;;;;;6.68;4.78;;;;;;;21.53;34.75;98661.66;5070754;28;20249;-51
2023/03/31 14:53:59;;;;;;;9.70;4.50;;;;;;;21.40;34.89;98655.75;5072430;28;20227;-49
2023/03/31 14:57:10;;;;;;;4.60;4.20;;;;;;;21.27;34.75;98665.69;5091364;28;20202;-50
2023/03/31 15:00:11;;;;;;;6.88;4.88;;;;;;;21.14;34.81;98665.03;5091167;28;20401;-49
2023/03/31 15:03:03;;;;;;;8.02;4.47;;;;;;;21.08;35.75;98650.59;5091141;28;20651;-49
2023/03/31 15:12:00;;;;;;;8.82;3.65;;;;;;;21.00;35.60;98653.03;5090588;28;20206;-50
2023/03/31 15:21:55;;;;;;;5.05;3.58;;;;;;;20.77;35.64;98660.25;5090218;28;20622;-50
2023/03/31 15:24:54;;;;;;;4.70;3.10;;;;;;;20.69;35.55;98651.31;5090832;28;20337;-50
2023/03/31 15:27:52;;;;;;;4.60;3.03;;;;;;;20.72;35.99;98657.19;5090842;28;20199;-52
2023/03/31 15:30:43;;;;;;;3.38;3.05;;;;;;;20.73;35.83;98653.56;5090499;28;20559;-49
2023/03/31 15:36:55;;;;;;;5.78;3.40;;;;;;;20.65;35.78;98659.47;5089395;28;20573;-49
2023/03/31 15:40:08;;;;;;;7.40;3.50;;;;;;;20.71;35.26;98655.50;5088594;28;20203;-50
2023/03/31 15:43:07;;;;;;;5.47;3.65;;;;;;;20.72;35.66;98658.97;5090547;28;20203;-50
2023/03/31 15:49:04;;;;;;;7.25;3.60;;;;;;;20.67;35.70;98646.16;5089101;28;20199;-51
2023/03/31 15:52:08;;;;;;;5.43;3.42;;;;;;;20.68;35.87;98647.84;5110694;28;20600;-49
2023/03/31 15:55:00;;;;;;;11.73;4.07;;;;;;;20.64;35.98;98642.00;5109182;28;20230;-52
2023/03/31 15:57:54;;;;;;;4.68;3.60;;;;;;;20.55;36.03;98650.66;5106867;28;20201;-50
2023/03/31 16:00:56;;;;;;;5.88;3.45;;;;;;;20.51;36.21;98645.78;5110168;28;20307;-49
2023/03/31 16:06:39;;;;;;;5.72;3.67;;;;;;;20.35;36.69;98642.72;5108900;28;20219;-50
2023/03/31 16:09:29;;;;;;;9.10;3.70;;;;;;;20.31;36.87;98650.06;5107856;28;20282;-50
2023/03/31 16:12:21;;;;;;;11.50;3.88;;;;;;;20.09;37.05;98635.13;5110398;28;20562;-49
2023/03/31 16:15:03;;;;;;;8.20;3.85;;;;;;;20.08;37.31;98637.91;5107934;28;20625;-51
2023/03/31 16:18:06;;;;;;;6.22;3.40;;;;;;;20.07;37.36;98638.88;5109448;28;20626;-51
2023/03/31 16:21:06;;;;;;;4.18;3.78;;;;;;;19.93;37.48;98629.47;5110533;28;20194;-51
2023/03/31 16:24:00;;;;;;;7.15;4.10;;;;;;;19.87;37.63;98630.78;5110255;28;20298;-50
2023/03/31 16:26:57;;;;;;;17.67;5.95;;;;;;;19.81;38.21;98638.34;5110054;28;20268;-52
2023/03/31 16:35:20;;;;;;;7.15;5.22;;;;;;;19.53;38.71;98627.38;5106624;28;20736;-50
2023/03/31 16:38:18;;;;;;;19.27;6.45;;;;;;;19.45;38.77;98635.03;5109638;28;20203;-50
2023/03/31 16:40:53;;;;;;;9.88;6.07;;;;;;;19.33;38.65;98633.34;5089792;28;20722;-51
2023/03/31 16:43:32;;;;;;;10.80;6.47;;;;;;;19.19;39.52;98636.22;5108035;28;20290;-51
2023/03/31 16:46:28;;;;;;;10.98;4.88;;;;;;;19.15;39.72;98648.78;5099204;28;20305;-51
2023/03/31 16:49:08;;;;;;;10.30;5.07;;;;;;;19.13;39.94;98639.34;5092226;28;20310;-49
2023/03/31 16:51:46;;;;;;;11.40;5.22;;;;;;;19.03;40.05;98635.75;5091116;28;20225;-50
2023/03/31 16:54:29;;;;;;;6.50;4.75;;;;;;;18.95;40.07;98638.16;5106172;28;20254;-52
2023/03/31 16:57:09;;;;;;;12.25;5.00;;;;;;;18.89;39.98;98638.59;5107215;28;20225;-49
2023/03/31 17:00:02;;;;;;;15.68;5.40;;;;;;;18.78;40.39;98645.53;5109180;28;20218;-49
2023/03/31 17:02:48;;;;;;;14.88;5.50;;;;;;;18.61;40.73;98637.25;5106947;28;20272;-53
2023/03/31 17:05:49;;;;;;;20.58;10.35;;;;;;;18.58;40.96;98637.47;5106889;28;20225;-54
2023/03/31 17:08:44;;;;;;;;;;;;;;;;;;;;;
2023/03/31 17:20:16;;;;;;;36.38;17.05;;;;;;;18.25;42.52;98646.06;5104034;28;20427;-54
2023/03/31 17:23:24;;;;;;;29.63;15.32;;;;;;;18.18;42.75;98639.56;5101348;28;20259;-53
2023/03/31 17:26:39;;;;;;;;;;;;;;;;;;;;;
2023/03/31 17:29:30;;;;;;;35.70;14.05;;;;;;;18.12;43.16;98646.94;5107731;28;20195;-52
2023/03/31 17:38:19;;;;;;;32.75;17.02;;;;;;;17.99;44.16;98645.31;5107958;28;20252;-54
2023/03/31 17:41:02;;;;;;;36.42;17.75;;;;;;;17.96;43.87;98656.88;5097497;28;20704;-55
2023/03/31 17:44:06;;;;;;;31.90;18.27;;;;;;;17.96;44.08;98646.38;5092351;28;20218;-55
2023/03/31 17:46:39;;;;;;;30.85;18.30;;;;;;;17.90;44.36;98649.47;5091791;28;20325;-54
2023/03/31 17:49:26;;;;;;;30.58;19.20;;;;;;;17.85;44.62;98645.47;5094227;28;20222;-54
2023/03/31 17:51:53;;;;;;;40.58;23.73;;;;;;;17.80;45.33;98645.84;5112156;28;20276;-53
2023/03/31 17:54:24;;;;;;;51.88;34.55;;;;;;;17.73;44.99;98649.81;5111981;28;20338;-52
2023/03/31 17:56:57;;;;;;;56.08;34.00;;;;;;;17.84;44.81;98649.06;5113338;28;20206;-51
2023/03/31 17:59:26;;;;;;;41.33;27.60;;;;;;;17.84;44.33;98646.44;5112631;28;20249;-51
2023/03/31 18:01:59;;;;;;;37.10;22.42;;;;;;;17.86;44.75;98642.75;5111879;28;20199;-53
2023/03/31 18:04:32;;;;;;;38.03;22.05;;;;;;;17.85;44.78;98643.69;5111154;28;20191;-51
2023/03/31 18:07:10;;;;;;;34.58;21.45;;;;;;;17.84;44.68;98644.66;5112403;28;20202;-51
2023/03/31 18:09:51;;;;;;;32.20;19.77;;;;;;;17.80;44.81;98650.25;5108798;28;20205;-52
2023/03/31 18:12:27;;;;;;;26.63;17.55;;;;;;;17.80;44.48;98645.00;5109504;28;20194;-52
2023/03/31 18:15:12;;;;;;;28.13;16.85;;;;;;;17.75;44.80;98640.06;5111728;28;20221;-51
2023/03/31 18:17:48;;;;;;;29.58;15.85;;;;;;;17.78;45.17;98643.31;5109184;28;20202;-52
2023/03/31 18:20:27;;;;;;;24.70;15.25;;;;;;;17.72;46.05;98640.28;5112501;28;20217;-52
2023/03/31 18:23:04;;;;;;;30.73;15.17;;;;;;;17.66;45.24;98643.34;5112151;28;20302;-54
2023/03/31 18:25:52;;;;;;;26.37;14.13;;;;;;;17.64;45.25;98640.84;5111813;28;20226;-52
2023/03/31 18:28:31;;;;;;;30.90;19.70;;;;;;;17.72;44.61;98646.34;5112345;28;20202;-52
2023/03/31 18:31:09;;;;;;;21.93;15.90;;;;;;;17.70;45.54;98650.06;5112178;28;20197;-53
2023/03/31 18:33:42;;;;;;;28.13;14.90;;;;;;;17.54;45.42;98650.28;5108255;28;20762;-52
2023/03/31 18:36:25;;;;;;;33.07;16.57;;;;;;;17.31;45.53;98630.06;5108856;28;20230;-52
2023/03/31 18:39:02;;;;;;;25.48;14.32;;;;;;;17.29;45.83;98645.91;5110778;28;20218;-53
2023/03/31 18:41:38;;;;;;;27.87;14.07;;;;;;;17.26;46.12;98640.06;5110717;28;20646;-52